Wheeling, West Virginia
Current Conditions -  °F | °C
As of 1:53 PM on Monday 20 Oct 2014 (Local Time) from KHLG Reporting Station
Broken Clouds Broken Clouds  
Wind Chill: 56°   Ceiling: 11000
Heat Index: 56°   Visibility: 10mi
Dew Point: 41°   Wind: 16mph
Humidity: 57%   Direction: 200°SSW
Pressure: 29.91"   Gusts: 21mph
Location:  40.06°N, 80.72°W
Report Text: KHLG 201753Z 20014G18KT 10SM FEW100 BKN110 13/05 A2991 RMK AO2 SLP135 T01330050 10133 20061 58028
Loading
Personal Weather Stations






























Interactive Weather Map
Tropical Storm Tracking
New forecast layout! Learn more

10-Day Weather Forecast

Advertisements
Track Severe Weather on mobile